sensor_id;sensor_type;location;lat;lon;timestamp;pressure;altitude;pressure_sealevel;temperature;humidity
12073;BME280;6098;49.004;8.372;2023-05-24T00:00:48;100740.62;;;16.45;53.54
12073;BME280;6098;49.004;8.372;2023-05-24T00:15:38;100720.52;;;16.22;54.49
12073;BME280;6098;49.004;8.372;2023-05-24T00:30:32;100717.23;;;16.25;54.86
12073;BME280;6098;49.004;8.372;2023-05-24T00:45:24;100718.61;;;16.01;55.18
12073;BME280;6098;49.004;8.372;2023-05-24T01:00:16;100702.25;;;15.83;55.77
12073;BME280;6098;49.004;8.372;2023-05-24T01:15:08;100710.00;;;15.72;56.71
12073;BME280;6098;49.004;8.372;2023-05-24T01:29:58;100706.73;;;15.58;57.81
12073;BME280;6098;49.004;8.372;2023-05-24T01:45:03;100715.73;;;15.39;58.83
12073;BME280;6098;49.004;8.372;2023-05-24T02:00:01;100730.33;;;15.16;58.79
12073;BME280;6098;49.004;8.372;2023-05-24T02:14:50;100746.31;;;15.00;58.42
12073;BME280;6098;49.004;8.372;2023-05-24T02:29:44;100759.35;;;14.89;57.62
12073;BME280;6098;49.004;8.372;2023-05-24T02:44:36;100762.78;;;14.74;57.21
12073;BME280;6098;49.004;8.372;2023-05-24T02:59:31;100757.11;;;14.54;57.07
12073;BME280;6098;49.004;8.372;2023-05-24T03:14:23;100738.05;;;14.52;56.78
12073;BME280;6098;49.004;8.372;2023-05-24T03:29:14;100736.73;;;14.43;56.81
12073;BME280;6098;49.004;8.372;2023-05-24T03:44:06;100731.75;;;14.36;56.96
12073;BME280;6098;49.004;8.372;2023-05-24T03:58:58;100733.24;;;14.33;57.36
12073;BME280;6098;49.004;8.372;2023-05-24T04:13:50;100747.81;;;14.16;57.36
12073;BME280;6098;49.004;8.372;2023-05-24T04:28:42;100756.25;;;14.16;57.70
12073;BME280;6098;49.004;8.372;2023-05-24T04:43:33;100766.66;;;14.03;57.66
12073;BME280;6098;49.004;8.372;2023-05-24T04:58:28;100765.55;;;13.98;57.70
12073;BME280;6098;49.004;8.372;2023-05-24T05:13:17;100770.52;;;13.86;58.31
12073;BME280;6098;49.004;8.372;2023-05-24T05:28:10;100776.08;;;13.91;58.32
12073;BME280;6098;49.004;8.372;2023-05-24T05:43:04;100768.03;;;14.01;58.25
12073;BME280;6098;49.004;8.372;2023-05-24T05:57:55;100775.39;;;14.15;58.39
12073;BME280;6098;49.004;8.372;2023-05-24T06:12:47;100780.91;;;14.11;57.74
12073;BME280;6098;49.004;8.372;2023-05-24T06:27:38;100790.86;;;13.88;58.10
12073;BME280;6098;49.004;8.372;2023-05-24T06:42:29;100804.55;;;14.19;57.79
12073;BME280;6098;49.004;8.372;2023-05-24T06:57:21;100813.63;;;14.43;56.95
12073;BME280;6098;49.004;8.372;2023-05-24T07:12:13;100835.93;;;14.60;56.56
12073;BME280;6098;49.004;8.372;2023-05-24T07:27:05;100856.97;;;14.58;55.38
12073;BME280;6098;49.004;8.372;2023-05-24T07:41:59;100854.88;;;14.46;56.00
12073;BME280;6098;49.004;8.372;2023-05-24T07:56:51;100859.74;;;14.55;53.41
12073;BME280;6098;49.004;8.372;2023-05-24T08:11:43;100854.05;;;15.08;52.21
12073;BME280;6098;49.004;8.372;2023-05-24T08:26:35;100855.78;;;15.00;50.58
12073;BME280;6098;49.004;8.372;2023-05-24T08:41:28;100864.42;;;15.57;48.78
12073;BME280;6098;49.004;8.372;2023-05-24T08:56:20;100866.34;;;15.46;47.21
12073;BME280;6098;49.004;8.372;2023-05-24T09:11:12;100856.50;;;15.82;47.22
12073;BME280;6098;49.004;8.372;2023-05-24T09:26:06;100863.93;;;15.76;44.57
12073;BME280;6098;49.004;8.372;2023-05-24T09:41:03;100861.52;;;16.04;43.77
12073;BME280;6098;49.004;8.372;2023-05-24T09:56:00;100844.64;;;16.43;43.72
12073;BME280;6098;49.004;8.372;2023-05-24T10:10:51;100840.41;;;16.39;41.47
12073;BME280;6098;49.004;8.372;2023-05-24T10:25:48;100837.47;;;16.52;41.33
12073;BME280;6098;49.004;8.372;2023-05-24T10:40:42;100813.53;;;16.96;39.86
12073;BME280;6098;49.004;8.372;2023-05-24T10:55:56;100805.53;;;17.10;37.46
12073;BME280;6098;49.004;8.372;2023-05-24T11:11:13;100806.09;;;17.38;38.85
12073;BME280;6098;49.004;8.372;2023-05-24T11:26:12;100783.84;;;17.94;39.70
12073;BME280;6098;49.004;8.372;2023-05-24T11:41:07;100779.20;;;18.25;39.58
12073;BME280;6098;49.004;8.372;2023-05-24T11:56:00;100779.98;;;18.68;38.94
12073;BME280;6098;49.004;8.372;2023-05-24T12:27:17;100757.90;;;19.74;37.92
12073;BME280;6098;49.004;8.372;2023-05-24T12:42:10;100752.73;;;19.59;37.92
12073;BME280;6098;49.004;8.372;2023-05-24T12:57:01;100729.17;;;20.12;37.09
12073;BME280;6098;49.004;8.372;2023-05-24T13:11:54;100718.63;;;20.33;35.83
12073;BME280;6098;49.004;8.372;2023-05-24T13:26:50;100711.80;;;21.05;34.58
12073;BME280;6098;49.004;8.372;2023-05-24T13:41:43;100697.89;;;21.05;33.27
12073;BME280;6098;49.004;8.372;2023-05-24T13:56:36;100697.74;;;21.18;33.16
12073;BME280;6098;49.004;8.372;2023-05-24T14:11:29;100699.45;;;21.64;32.47
12073;BME280;6098;49.004;8.372;2023-05-24T14:26:23;100695.07;;;22.02;30.91
12073;BME280;6098;49.004;8.372;2023-05-24T14:41:14;100702.08;;;21.99;29.90
12073;BME280;6098;49.004;8.372;2023-05-24T14:56:06;100702.70;;;22.73;29.40
12073;BME280;6098;49.004;8.372;2023-05-24T15:10:58;100691.69;;;22.70;29.64
12073;BME280;6098;49.004;8.372;2023-05-24T15:25:53;100686.19;;;22.60;28.74
12073;BME280;6098;49.004;8.372;2023-05-24T15:40:47;100690.12;;;23.30;28.23
12073;BME280;6098;49.004;8.372;2023-05-24T15:55:41;100677.48;;;23.91;28.53
12073;BME280;6098;49.004;8.372;2023-05-24T16:10:35;100667.87;;;23.47;28.16
12073;BME280;6098;49.004;8.372;2023-05-24T16:25:26;100675.09;;;21.94;30.62
12073;BME280;6098;49.004;8.372;2023-05-24T16:40:13;100665.31;;;20.67;31.72
12073;BME280;6098;49.004;8.372;2023-05-24T16:55:04;100674.80;;;19.88;33.40
12073;BME280;6098;49.004;8.372;2023-05-24T17:09:56;100682.73;;;19.66;34.03
12073;BME280;6098;49.004;8.372;2023-05-24T17:24:49;100682.80;;;19.33;34.96
12073;BME280;6098;49.004;8.372;2023-05-24T17:39:40;100702.19;;;18.93;36.72
12073;BME280;6098;49.004;8.372;2023-05-24T17:54:32;100716.06;;;18.33;39.19
12073;BME280;6098;49.004;8.372;2023-05-24T18:09:22;100726.56;;;18.02;39.67
12073;BME280;6098;49.004;8.372;2023-05-24T18:24:16;100731.38;;;17.69;40.91
12073;BME280;6098;49.004;8.372;2023-05-24T18:39:09;100739.06;;;17.53;41.46
12073;BME280;6098;49.004;8.372;2023-05-24T18:53:59;100742.67;;;17.23;39.32
12073;BME280;6098;49.004;8.372;2023-05-24T19:08:51;100763.32;;;17.14;38.83
12073;BME280;6098;49.004;8.372;2023-05-24T19:23:43;100778.83;;;17.01;39.04
12073;BME280;6098;49.004;8.372;2023-05-24T19:38:53;100781.75;;;16.90;39.25
12073;BME280;6098;49.004;8.372;2023-05-24T19:53:45;100785.87;;;16.73;39.88
12073;BME280;6098;49.004;8.372;2023-05-24T20:08:38;100792.44;;;16.59;40.81
12073;BME280;6098;49.004;8.372;2023-05-24T20:23:29;100792.56;;;16.49;41.18
12073;BME280;6098;49.004;8.372;2023-05-24T20:38:21;100792.17;;;16.16;41.92
12073;BME280;6098;49.004;8.372;2023-05-24T20:53:12;100782.64;;;15.95;43.02
12073;BME280;6098;49.004;8.372;2023-05-24T21:08:04;100784.98;;;15.77;43.95
12073;BME280;6098;49.004;8.372;2023-05-24T21:22:55;100787.28;;;15.51;45.08
12073;BME280;6098;49.004;8.372;2023-05-24T21:37:46;100791.53;;;15.38;45.98
12073;BME280;6098;49.004;8.372;2023-05-24T21:52:37;100807.56;;;15.12;46.85
12073;BME280;6098;49.004;8.372;2023-05-24T22:07:26;100812.66;;;14.81;47.84
12073;BME280;6098;49.004;8.372;2023-05-24T22:22:17;100811.23;;;14.56;48.65
12073;BME280;6098;49.004;8.372;2023-05-24T22:37:09;100826.63;;;14.41;49.31
12073;BME280;6098;49.004;8.372;2023-05-24T22:52:00;100821.27;;;14.22;50.47
12073;BME280;6098;49.004;8.372;2023-05-24T23:06:51;100819.02;;;14.04;51.39
12073;BME280;6098;49.004;8.372;2023-05-24T23:21:42;100829.75;;;13.83;52.14
12073;BME280;6098;49.004;8.372;2023-05-24T23:36:33;100819.31;;;13.68;52.48
12073;BME280;6098;49.004;8.372;2023-05-24T23:51:24;100827.69;;;13.50;53.57
